createdAt,value
2019-02-16T00:00:49.071Z,3.70
2019-02-16T00:03:18.575Z,3.64
2019-02-16T00:05:48.090Z,3.62
2019-02-16T00:08:17.619Z,3.50
2019-02-16T00:10:47.077Z,3.23
2019-02-16T00:13:16.784Z,3.15
2019-02-16T00:15:46.186Z,2.56
2019-02-16T00:18:15.831Z,2.81
2019-02-16T00:20:45.283Z,3.06
2019-02-16T00:23:14.613Z,3.21
2019-02-16T00:25:44.135Z,3.23
2019-02-16T00:28:15.324Z,3.18
2019-02-16T00:30:46.269Z,3.24
2019-02-16T00:33:15.680Z,3.24
2019-02-16T00:35:44.990Z,3.25
2019-02-16T00:38:14.401Z,3.27
2019-02-16T00:40:43.786Z,3.06
2019-02-16T00:43:13.119Z,3.19
2019-02-16T00:45:42.501Z,3.28
2019-02-16T00:48:11.837Z,3.34
2019-02-16T00:50:41.329Z,2.99
2019-02-16T00:53:10.868Z,3.05
2019-02-16T00:55:40.358Z,2.66
2019-02-16T00:58:09.831Z,2.75
2019-02-16T01:00:39.146Z,2.90
2019-02-16T01:03:08.801Z,2.86
2019-02-16T01:05:38.458Z,2.84
2019-02-16T01:08:08.110Z,2.68
2019-02-16T01:10:37.665Z,2.67
2019-02-16T01:13:07.008Z,2.87
2019-02-16T01:15:36.560Z,2.95
2019-02-16T01:18:05.898Z,2.79
2019-02-16T01:20:35.387Z,2.65
2019-02-16T01:23:04.726Z,2.70
2019-02-16T01:25:34.375Z,2.62
2019-02-16T01:28:03.855Z,2.47
2019-02-16T01:30:33.310Z,2.45
2019-02-16T01:33:04.449Z,2.44
2019-02-16T01:35:33.932Z,2.57
2019-02-16T01:38:03.418Z,2.68
2019-02-16T01:40:32.856Z,2.64
2019-02-16T01:43:02.377Z,2.66
2019-02-16T01:45:31.899Z,2.64
2019-02-16T01:48:01.305Z,2.37
2019-02-16T01:50:30.683Z,1.82
2019-02-16T01:53:00.087Z,2.12
2019-02-16T01:55:29.566Z,2.12
2019-02-16T01:57:59.039Z,2.28
2019-02-16T02:00:28.494Z,2.53
2019-02-16T02:02:57.831Z,2.55
2019-02-16T02:05:27.285Z,2.53
2019-02-16T02:07:56.827Z,2.42
2019-02-16T02:10:26.357Z,2.45
2019-02-16T02:12:55.934Z,2.33
2019-02-16T02:15:25.320Z,2.45
2019-02-16T02:17:54.652Z,2.48
2019-02-16T02:20:25.376Z,2.38
2019-02-16T02:22:54.885Z,2.40
2019-02-16T02:25:24.605Z,2.33
2019-02-16T02:27:54.106Z,2.42
2019-02-16T02:30:23.592Z,2.36
2019-02-16T02:32:52.902Z,2.38
2019-02-16T02:35:22.551Z,2.37
2019-02-16T02:37:52.141Z,2.35
2019-02-16T02:40:21.794Z,2.06
2019-02-16T02:42:51.181Z,2.01
2019-02-16T02:45:20.751Z,2.20
2019-02-16T02:47:50.307Z,2.25
2019-02-16T02:50:19.782Z,2.23
2019-02-16T02:52:49.335Z,2.13
2019-02-16T02:55:18.666Z,2.21
2019-02-16T02:57:48.080Z,2.22
2019-02-16T03:00:17.605Z,2.28
2019-02-16T03:02:47.067Z,2.14
2019-02-16T03:05:16.394Z,2.15
2019-02-16T03:07:45.771Z,1.78
2019-02-16T03:10:15.174Z,1.81
2019-02-16T03:12:44.561Z,2.05
2019-02-16T03:15:13.970Z,2.01
2019-02-16T03:17:43.279Z,1.81
2019-02-16T03:20:12.620Z,2.07
2019-02-16T03:23:14.417Z,1.88
2019-02-16T03:25:51.323Z,2.02
2019-02-16T03:28:34.584Z,1.66
2019-02-16T03:31:43.047Z,1.78
2019-02-16T03:34:28.603Z,1.76
2019-02-16T03:37:23.913Z,1.82
2019-02-16T03:39:53.583Z,1.74
2019-02-16T03:42:23.402Z,1.79
2019-02-16T03:44:53.047Z,1.75
2019-02-16T03:47:22.701Z,1.78
2019-02-16T03:49:52.210Z,1.77
2019-02-16T03:52:21.692Z,1.80
2019-02-16T03:54:51.167Z,1.70
2019-02-16T03:57:20.717Z,1.61
2019-02-16T03:59:50.060Z,1.71
2019-02-16T04:02:19.542Z,1.72
2019-02-16T04:04:49.052Z,1.55
2019-02-16T04:07:18.531Z,1.69
2019-02-16T04:09:48.411Z,1.71
2019-02-16T04:12:17.863Z,1.61
2019-02-16T04:14:47.198Z,1.78
2019-02-16T04:17:16.752Z,1.61
2019-02-16T04:19:46.246Z,1.63
2019-02-16T04:22:24.249Z,1.66
2019-02-16T04:24:48.697Z,1.65
2019-02-16T04:27:18.085Z,1.71
2019-02-16T04:29:47.627Z,1.76
2019-02-16T04:32:17.083Z,1.58
2019-02-16T04:34:46.424Z,1.54
2019-02-16T04:37:15.885Z,1.55
2019-02-16T04:39:45.354Z,1.50
2019-02-16T04:42:14.737Z,1.35
2019-02-16T04:44:44.217Z,1.51
2019-02-16T04:47:13.590Z,1.58
2019-02-16T04:49:43.045Z,1.55
2019-02-16T04:52:12.554Z,1.41
2019-02-16T04:54:42.207Z,1.26
2019-02-16T04:57:13.176Z,1.40
2019-02-16T04:59:42.654Z,1.61
2019-02-16T05:02:12.402Z,1.31
2019-02-16T05:04:42.118Z,1.43
2019-02-16T05:07:11.761Z,1.50
2019-02-16T05:09:41.416Z,1.52
2019-02-16T05:12:10.748Z,1.55
2019-02-16T05:14:40.229Z,1.50
2019-02-16T05:17:09.568Z,1.18
2019-02-16T05:19:39.219Z,1.18
2019-02-16T05:22:08.686Z,1.14
2019-02-16T05:24:40.941Z,1.15
2019-02-16T05:27:10.444Z,1.07
2019-02-16T05:29:39.831Z,0.89
2019-02-16T05:32:09.470Z,1.02
2019-02-16T05:34:38.850Z,1.21
2019-02-16T05:37:08.382Z,1.15
2019-02-16T05:39:37.833Z,0.99
2019-02-16T05:42:07.172Z,0.88
2019-02-16T05:44:36.550Z,1.00
2019-02-16T05:47:05.950Z,1.10
2019-02-16T05:49:35.333Z,1.16
2019-02-16T05:52:04.805Z,1.03
2019-02-16T05:54:34.259Z,1.04
2019-02-16T05:57:03.592Z,0.98
2019-02-16T05:59:32.978Z,0.97
2019-02-16T06:02:02.318Z,0.92
2019-02-16T06:04:31.761Z,0.98
2019-02-16T06:07:01.164Z,1.19
2019-02-16T06:09:30.617Z,1.12
2019-02-16T06:12:00.120Z,1.05
2019-02-16T06:14:29.566Z,1.19
2019-02-16T06:16:58.898Z,1.20
2019-02-16T06:19:28.214Z,1.12
2019-02-16T06:21:57.757Z,1.03
2019-02-16T06:24:27.202Z,0.98
2019-02-16T06:26:56.534Z,0.92
2019-02-16T06:29:26.024Z,0.93
2019-02-16T06:31:55.352Z,0.86
2019-02-16T06:34:28.336Z,0.74
2019-02-16T06:36:57.969Z,0.90
2019-02-16T06:39:27.344Z,0.90
2019-02-16T06:41:56.963Z,0.87
2019-02-16T06:44:26.511Z,1.08
2019-02-16T06:46:55.851Z,1.19
2019-02-16T06:49:25.352Z,1.25
2019-02-16T06:51:54.676Z,1.03
2019-02-16T06:54:24.228Z,1.18
2019-02-16T06:57:01.537Z,1.14
2019-02-16T06:59:31.025Z,0.80
2019-02-16T07:02:00.358Z,0.88
2019-02-16T07:04:29.820Z,1.01
2019-02-16T07:06:59.305Z,1.08
2019-02-16T07:09:28.749Z,1.18
2019-02-16T07:11:58.065Z,1.20
2019-02-16T07:14:27.471Z,1.22
2019-02-16T07:16:58.591Z,1.17
2019-02-16T07:19:29.710Z,1.23
2019-02-16T07:21:59.533Z,1.21
2019-02-16T07:24:29.009Z,1.21
2019-02-16T07:26:58.459Z,1.25
2019-02-16T07:29:27.933Z,1.27
2019-02-16T07:31:57.585Z,1.32
2019-02-16T07:34:27.001Z,1.27
2019-02-16T07:36:56.587Z,1.29
2019-02-16T07:39:26.082Z,1.29
2019-02-16T07:41:57.305Z,1.29
2019-02-16T07:44:30.957Z,1.22
2019-02-16T07:47:18.006Z,1.26
2019-02-16T07:49:59.513Z,1.17
2019-02-16T07:52:33.491Z,1.16
2019-02-16T07:55:09.698Z,1.09
2019-02-16T07:57:40.675Z,1.19
2019-02-16T08:00:11.825Z,1.22
2019-02-16T08:02:42.955Z,1.29
2019-02-16T08:05:13.913Z,1.21
2019-02-16T08:07:47.836Z,1.38
2019-02-16T08:10:34.198Z,1.15
2019-02-16T08:13:11.318Z,1.37
2019-02-16T08:15:47.854Z,1.37
2019-02-16T08:18:27.906Z,1.23
2019-02-16T08:21:08.073Z,1.15
2019-02-16T08:23:40.570Z,1.33
2019-02-16T08:26:20.825Z,1.54
2019-02-16T08:28:52.016Z,1.52
2019-02-16T08:31:26.737Z,1.76
2019-02-16T08:34:01.049Z,1.86
2019-02-16T08:36:40.871Z,1.96
2019-02-16T08:39:12.238Z,2.07
2019-02-16T08:41:43.923Z,2.13
2019-02-16T08:44:15.038Z,2.22
2019-02-16T08:46:58.466Z,2.32
2019-02-16T08:49:38.144Z,2.38
2019-02-16T08:52:09.232Z,2.42
2019-02-16T08:54:43.283Z,2.49
2019-02-16T08:57:29.955Z,2.55
2019-02-16T09:00:08.193Z,2.56
2019-02-16T09:02:51.553Z,2.69
2019-02-16T09:05:25.454Z,2.72
2019-02-16T09:08:05.678Z,2.75
2019-02-16T09:10:36.828Z,2.66
2019-02-16T09:13:07.956Z,2.85
2019-02-16T09:15:41.834Z,2.97
2019-02-16T09:18:12.791Z,2.97
2019-02-16T09:20:46.663Z,2.86
2019-02-16T09:23:29.674Z,3.00
2019-02-16T09:26:12.912Z,3.04
2019-02-16T09:28:43.885Z,3.05
2019-02-16T09:31:30.933Z,3.13
2019-02-16T09:34:14.061Z,3.13
2019-02-16T09:36:51.067Z,3.15
2019-02-16T09:39:22.265Z,3.31
2019-02-16T09:41:56.527Z,3.39
2019-02-16T09:44:27.720Z,3.39
2019-02-16T09:47:12.096Z,3.53
2019-02-16T09:49:51.018Z,3.54
2019-02-16T09:52:24.597Z,3.63
2019-02-16T09:54:55.624Z,3.68
2019-02-16T09:57:35.527Z,3.83
2019-02-16T10:00:14.017Z,3.89
2019-02-16T10:03:01.454Z,3.92
2019-02-16T10:05:48.322Z,3.97
2019-02-16T10:08:19.325Z,4.18
2019-02-16T10:10:53.459Z,4.13
2019-02-16T10:13:23.744Z,4.15
2019-02-16T10:15:58.150Z,4.25
2019-02-16T10:18:32.195Z,4.30
2019-02-16T10:21:17.748Z,4.45
2019-02-16T10:24:01.061Z,4.62
2019-02-16T10:26:32.139Z,4.67
2019-02-16T10:29:11.839Z,4.78
2019-02-16T10:31:42.933Z,4.86
2019-02-16T10:34:20.254Z,5.06
2019-02-16T10:36:51.622Z,5.20
2019-02-16T10:39:25.499Z,5.26
2019-02-16T10:42:08.875Z,5.25
2019-02-16T10:44:45.542Z,5.31
2019-02-16T10:47:32.520Z,5.53
2019-02-16T10:50:09.786Z,5.55
2019-02-16T10:52:45.185Z,5.54
2019-02-16T10:55:22.287Z,5.57
2019-02-16T10:57:56.373Z,5.72
2019-02-16T11:00:43.127Z,5.89
2019-02-16T11:03:15.808Z,5.97
2019-02-16T11:05:56.162Z,6.13
2019-02-16T11:08:28.746Z,6.24
2019-02-16T11:11:05.452Z,6.37
2019-02-16T11:13:42.096Z,6.32
2019-02-16T11:16:19.104Z,6.37
2019-02-16T11:18:52.910Z,6.55
2019-02-16T11:21:26.811Z,6.76
2019-02-16T11:24:13.238Z,6.83
2019-02-16T11:26:44.429Z,6.98
2019-02-16T11:29:13.582Z,7.09
2019-02-16T11:31:47.670Z,7.22
2019-02-16T11:34:30.703Z,7.27
2019-02-16T11:37:04.670Z,7.40
2019-02-16T11:39:40.019Z,7.40
2019-02-16T11:42:30.855Z,7.49
2019-02-16T11:45:04.419Z,7.62
2019-02-16T11:47:39.838Z,7.79
2019-02-16T11:50:26.063Z,7.96
2019-02-16T11:53:13.405Z,8.12
2019-02-16T11:56:00.795Z,8.37
2019-02-16T11:58:41.162Z,8.41
2019-02-16T12:01:16.346Z,8.58
2019-02-16T12:04:03.852Z,8.99
2019-02-16T12:06:42.599Z,9.10
2019-02-16T12:09:13.892Z,9.20
2019-02-16T12:11:48.911Z,9.38
2019-02-16T12:14:37.691Z,9.71
2019-02-16T12:17:08.839Z,9.85
2019-02-16T12:19:52.066Z,9.84
2019-02-16T12:22:23.124Z,10.26
2019-02-16T12:25:05.400Z,10.38
2019-02-16T12:27:47.197Z,10.50
2019-02-16T12:30:24.067Z,10.59
2019-02-16T12:33:00.853Z,10.27
2019-02-16T12:35:43.471Z,10.49
2019-02-16T12:38:17.011Z,10.68
2019-02-16T12:40:54.913Z,11.18
2019-02-16T12:43:24.145Z,11.13
2019-02-16T12:46:11.276Z,11.31
2019-02-16T12:48:57.330Z,11.59
2019-02-16T12:51:43.372Z,12.00
2019-02-16T12:54:26.643Z,12.14
2019-02-16T12:57:03.199Z,12.22
2019-02-16T12:59:34.212Z,12.48
2019-02-16T13:02:12.292Z,12.62
2019-02-16T13:04:49.081Z,12.65
2019-02-16T13:07:32.148Z,12.94
2019-02-16T13:10:12.265Z,13.13
2019-02-16T13:12:46.327Z,12.98
2019-02-16T13:15:20.567Z,13.23
2019-02-16T13:17:57.779Z,13.68
2019-02-16T13:20:26.865Z,13.69
2019-02-16T13:23:00.945Z,13.96
2019-02-16T13:25:34.468Z,14.11
2019-02-16T13:28:08.604Z,14.63
2019-02-16T13:30:51.621Z,14.60
2019-02-16T13:33:22.731Z,14.65
2019-02-16T13:36:02.781Z,14.89
2019-02-16T13:38:33.987Z,14.92
2019-02-16T13:41:08.013Z,15.06
2019-02-16T13:43:40.498Z,15.00
2019-02-16T13:46:09.678Z,15.33
2019-02-16T13:48:43.673Z,15.71
2019-02-16T13:51:30.813Z,15.86
2019-02-16T13:54:17.375Z,15.93
2019-02-16T13:56:51.349Z,16.00
2019-02-16T13:59:38.389Z,16.11
2019-02-16T14:02:09.453Z,16.23
2019-02-16T14:04:52.822Z,16.24
2019-02-16T14:07:23.805Z,16.53
2019-02-16T14:10:04.898Z,16.65
2019-02-16T14:12:36.025Z,16.99
2019-02-16T14:15:11.687Z,17.09
2019-02-16T14:17:42.880Z,17.74
2019-02-16T14:20:12.268Z,18.07
2019-02-16T14:22:41.689Z,18.15
2019-02-16T14:25:12.721Z,18.48
2019-02-16T14:27:42.132Z,18.98
2019-02-16T14:30:13.334Z,19.22
2019-02-16T14:32:42.897Z,19.24
2019-02-16T14:35:12.287Z,19.20
2019-02-16T14:37:46.075Z,19.29
2019-02-16T14:40:15.392Z,19.25
2019-02-16T14:42:44.733Z,19.46
2019-02-16T14:45:15.863Z,19.74
2019-02-16T14:47:45.321Z,19.74
2019-02-16T14:50:16.760Z,19.73
2019-02-16T14:52:45.852Z,19.77
2019-02-16T14:55:19.340Z,19.09
2019-02-16T14:57:48.658Z,18.97
2019-02-16T15:00:18.008Z,19.13
2019-02-16T15:02:47.388Z,18.72
2019-02-16T15:05:16.807Z,18.87
2019-02-16T15:07:46.191Z,18.48
2019-02-16T15:10:15.756Z,18.25
2019-02-16T15:12:45.244Z,17.97
2019-02-16T15:15:14.703Z,17.84
2019-02-16T15:17:44.121Z,17.85
2019-02-16T15:20:16.255Z,17.62
2019-02-16T15:22:45.763Z,17.42
2019-02-16T15:25:16.127Z,17.16
2019-02-16T15:27:45.456Z,16.69
2019-02-16T15:30:20.414Z,16.48
2019-02-16T15:32:49.766Z,16.05
2019-02-16T15:35:20.573Z,15.67
2019-02-16T15:37:50.064Z,15.47
2019-02-16T15:40:19.550Z,14.92
2019-02-16T15:42:48.872Z,14.61
2019-02-16T15:45:18.285Z,14.19
2019-02-16T15:47:47.602Z,13.72
2019-02-16T15:50:16.954Z,13.31
2019-02-16T15:52:46.410Z,13.00
2019-02-16T15:55:15.762Z,12.78
2019-02-16T15:57:45.157Z,12.58
2019-02-16T16:00:18.069Z,12.23
2019-02-16T16:02:47.519Z,12.07
2019-02-16T16:05:16.864Z,11.86
2019-02-16T16:07:48.209Z,11.60
2019-02-16T16:10:19.318Z,11.42
2019-02-16T16:12:52.987Z,11.30
2019-02-16T16:15:31.223Z,11.19
2019-02-16T16:18:02.257Z,10.95
2019-02-16T16:20:33.240Z,10.87
2019-02-16T16:23:04.204Z,10.78
2019-02-16T16:25:35.372Z,10.66
2019-02-16T16:28:22.386Z,10.58
2019-02-16T16:30:53.440Z,10.51
2019-02-16T16:33:24.396Z,10.38
2019-02-16T16:35:55.588Z,10.30
2019-02-16T16:38:29.884Z,10.14
2019-02-16T16:41:00.202Z,9.98
2019-02-16T16:43:31.840Z,9.83
2019-02-16T16:46:02.862Z,9.74
2019-02-16T16:48:36.563Z,9.59
2019-02-16T16:51:11.765Z,9.50
2019-02-16T16:53:42.815Z,9.34
2019-02-16T16:56:28.751Z,9.29
2019-02-16T16:58:53.661Z,9.12
2019-02-16T17:01:27.530Z,9.06
2019-02-16T17:03:58.501Z,8.88
2019-02-16T17:06:36.807Z,8.76
2019-02-16T17:09:25.887Z,8.80
2019-02-16T17:12:13.491Z,8.78
2019-02-16T17:14:56.208Z,8.66
2019-02-16T17:17:27.249Z,8.49
2019-02-16T17:19:58.346Z,8.39
2019-02-16T17:22:30.664Z,8.24
2019-02-16T17:25:17.824Z,8.23
2019-02-16T17:27:54.584Z,8.26
2019-02-16T17:30:32.663Z,8.35
2019-02-16T17:33:12.606Z,8.36
2019-02-16T17:35:43.597Z,8.22
2019-02-16T17:38:32.945Z,8.20
2019-02-16T17:41:13.159Z,8.14
2019-02-16T17:43:57.614Z,8.07
2019-02-16T17:46:45.151Z,7.98
2019-02-16T17:49:21.930Z,8.08
2019-02-16T17:52:05.197Z,7.97
2019-02-16T17:54:37.470Z,7.77
2019-02-16T17:57:20.111Z,7.69
2019-02-16T17:59:54.170Z,7.57
2019-02-16T18:02:25.266Z,7.43
2019-02-16T18:05:05.205Z,7.46
2019-02-16T18:07:39.166Z,7.45
2019-02-16T18:10:13.016Z,7.37
2019-02-16T18:12:44.038Z,7.41
2019-02-16T18:15:18.050Z,7.42
2019-02-16T18:18:07.427Z,7.39
2019-02-16T18:20:55.070Z,7.53
2019-02-16T18:23:31.489Z,7.56
2019-02-16T18:26:17.869Z,7.57
2019-02-16T18:28:57.016Z,7.57
2019-02-16T18:31:21.918Z,7.51
2019-02-16T18:33:55.947Z,7.32
2019-02-16T18:36:43.221Z,7.33
2019-02-16T18:39:30.781Z,7.22
2019-02-16T18:42:07.760Z,7.25
2019-02-16T18:44:36.987Z,6.94
2019-02-16T18:47:23.935Z,7.13
2019-02-16T18:49:57.561Z,7.20
2019-02-16T18:52:44.766Z,7.20
2019-02-16T18:55:25.902Z,7.19
2019-02-16T18:57:59.337Z,7.12
2019-02-16T19:00:33.028Z,6.92
2019-02-16T19:03:14.473Z,6.91
2019-02-16T19:06:00.707Z,6.85
2019-02-16T19:08:45.108Z,6.87
2019-02-16T19:11:31.406Z,7.01
2019-02-16T19:14:08.313Z,6.96
2019-02-16T19:16:52.347Z,6.90
2019-02-16T19:19:23.464Z,6.91
2019-02-16T19:21:54.438Z,6.90
2019-02-16T19:24:31.014Z,6.79
2019-02-16T19:27:04.998Z,6.60
2019-02-16T19:29:36.140Z,6.42
2019-02-16T19:32:07.230Z,6.49
2019-02-16T19:34:47.225Z,6.52
2019-02-16T19:37:18.356Z,6.47
2019-02-16T19:39:49.503Z,6.28
2019-02-16T19:42:39.172Z,6.34
2019-02-16T19:45:13.594Z,6.18
2019-02-16T19:47:47.663Z,6.29
2019-02-16T19:50:16.888Z,6.39
2019-02-16T19:52:48.010Z,6.26
2019-02-16T19:55:19.016Z,6.25
2019-02-16T19:57:50.134Z,5.84
2019-02-16T20:00:21.429Z,6.06
2019-02-16T20:02:52.793Z,6.19
2019-02-16T20:05:35.954Z,6.19
2019-02-16T20:08:10.223Z,6.02
2019-02-16T20:10:44.110Z,6.04
2019-02-16T20:13:31.912Z,6.10
2019-02-16T20:16:05.792Z,5.90
2019-02-16T20:18:39.222Z,5.67
2019-02-16T20:21:12.823Z,5.86
2019-02-16T20:23:43.956Z,5.81
2019-02-16T20:26:32.861Z,5.85
2019-02-16T20:29:03.818Z,5.93
2019-02-16T20:31:34.880Z,5.61
2019-02-16T20:34:10.194Z,5.56
2019-02-16T20:36:42.633Z,5.69
2019-02-16T20:39:30.015Z,5.62
2019-02-16T20:42:09.615Z,5.31
2019-02-16T20:44:40.577Z,5.35
2019-02-16T20:47:20.347Z,5.31
2019-02-16T20:49:53.808Z,5.16
2019-02-16T20:52:40.135Z,5.20
2019-02-16T20:55:11.127Z,5.29
2019-02-16T20:57:48.392Z,5.52
2019-02-16T21:00:18.706Z,5.38
2019-02-16T21:02:49.688Z,5.25
2019-02-16T21:05:29.765Z,5.39
2019-02-16T21:08:11.209Z,5.32
2019-02-16T21:10:51.428Z,5.53
2019-02-16T21:13:26.637Z,5.66
2019-02-16T21:16:00.901Z,5.70
2019-02-16T21:18:34.411Z,5.69
2019-02-16T21:21:08.501Z,5.71
2019-02-16T21:23:48.019Z,5.52
2019-02-16T21:26:22.175Z,5.46
2019-02-16T21:28:52.596Z,5.54
2019-02-16T21:31:33.102Z,5.56
2019-02-16T21:34:04.267Z,5.58
2019-02-16T21:36:47.420Z,5.54
2019-02-16T21:39:18.582Z,5.19
2019-02-16T21:41:49.532Z,5.09
2019-02-16T21:44:35.588Z,4.95
2019-02-16T21:47:09.627Z,4.90
2019-02-16T21:49:46.129Z,4.96
2019-02-16T21:52:18.896Z,4.87
2019-02-16T21:54:52.978Z,4.69
2019-02-16T21:57:40.334Z,4.85
2019-02-16T22:00:24.419Z,4.82
2019-02-16T22:02:55.466Z,4.85
2019-02-16T22:05:27.134Z,4.63
2019-02-16T22:07:58.270Z,4.72
2019-02-16T22:10:41.424Z,4.78
2019-02-16T22:13:10.746Z,4.41
2019-02-16T22:15:40.468Z,4.65
2019-02-16T22:18:10.017Z,4.43
2019-02-16T22:20:39.470Z,4.55
2019-02-16T22:23:09.225Z,4.67
2019-02-16T22:25:38.609Z,4.49
2019-02-16T22:28:17.926Z,4.58
2019-02-16T22:30:39.361Z,4.64
2019-02-16T22:33:09.042Z,4.71
2019-02-16T22:35:38.530Z,4.19
2019-02-16T22:38:08.010Z,4.42
2019-02-16T22:40:37.565Z,4.54
2019-02-16T22:43:07.499Z,4.70
2019-02-16T22:45:36.987Z,4.56
2019-02-16T22:48:06.607Z,4.66
2019-02-16T22:50:36.257Z,4.67
2019-02-16T22:53:05.574Z,4.70
2019-02-16T22:55:36.547Z,4.38
2019-02-16T22:58:06.166Z,4.44
2019-02-16T23:00:37.458Z,4.41
2019-02-16T23:03:07.909Z,4.39
2019-02-16T23:05:37.260Z,4.34
2019-02-16T23:08:06.713Z,4.34
2019-02-16T23:10:36.058Z,4.13
2019-02-16T23:13:05.578Z,4.18
2019-02-16T23:15:35.059Z,4.15
2019-02-16T23:18:04.581Z,4.16
2019-02-16T23:20:34.079Z,3.99
2019-02-16T23:23:03.738Z,4.04
2019-02-16T23:25:33.194Z,3.94
2019-02-16T23:28:02.606Z,4.05
2019-02-16T23:30:32.063Z,4.04
2019-02-16T23:33:01.543Z,4.19
2019-02-16T23:35:31.094Z,4.03
2019-02-16T23:38:00.496Z,3.94
2019-02-16T23:40:29.877Z,4.13
2019-02-16T23:43:02.023Z,3.83
2019-02-16T23:45:31.573Z,3.90
2019-02-16T23:48:01.087Z,3.80
2019-02-16T23:50:30.613Z,3.72
2019-02-16T23:53:00.310Z,3.83
2019-02-16T23:55:29.790Z,3.75
2019-02-16T23:57:59.109Z,3.76
